Manteno, IL (60950)

10:11 PM CST on February 21, 2017 (GMT -0600)
flat farm country | | Change Station
Active Advisory: Marine Fog Advisory

Elev 663 ft 41.19 °N, 87.82 °W | Updated 8 seconds ago

Partly Cloudy
Partly Cloudy
51.3 °F
Feels Like 51.3 °F
N
4.5
Wind Variable Wind from ESE
Gusts 4.9 mph

Today
High -- | Low -- °F
--% Chance of Precip.
Yesterday
High -- | Low -- °F
Precip. -- in
Pressure 29.89 in
Visibility 10.0 miles
Clouds Clear
Dew Point 36 °F
Humidity 56%
Rainfall 0.15 in
Snow Depth Not available.
6:37 AM 5:33 PM
Waning Crescent, 20% visible
METAR KIKK 220355Z AUTO 00000KT 10SM CLR 13/12 A2989 RMK AO2 T01280118
Pressure 29.89 in
Visibility 10.0 miles
Clouds Clear
Dew Point 36 °F
Humidity 56%
Rainfall 0.15 in
Snow Depth Not available.
6:37 AM 5:33 PM
Waning Crescent, 20% visible
METAR KIKK 220355Z AUTO 00000KT 10SM CLR 13/12 A2989 RMK AO2 T01280118

Get Your Daily Forecast Email!

Thanks for signing up!

Be on the lookout for a verification email in your inbox.

You'll start receiving the daily forecast at 8 AM.

×

10-Day Weather Forecast

Almanac

Astronomy

Feb. 21, 2017 Rise Set
Actual Time
Civil Twilight
Nautical Twilight
Astronomical Twilight
Moon
Length of Visible Light
Length of Day
Tomorrow will be .
, % of the Moon is Illuminated

Today's Extremes

State Highs State Lows

Community

WunderPhotos

Upload Photos

1,962,540 photos uploaded!

WunderBlog® & News

Nearby

Air Quality

  Air Quality AQ Index Pollutant
Not available.

Snow Depth

Station Depth Elevation

Earthquake Activity

City Distance Mag. Time & Date
Minimum magnitude displayed is 2.5.

Coastal Water Temperatures

Place Temperature

Stations

Nearby Weather Stations

Station Location Temp. Windchill Dew Point Humidity Wind Precip. Elev Updated Type
                   

Watches & Warnings

Marine Fog Advisory
Issued: 9:56 PM CST Feb. 21, 2017 – National Weather Service

... Dense fog advisory remains in effect until 9 am CST
Wednesday...

* visibility... less than one quarter mile.

Precautionary/preparedness actions...

A dense fog advisory means visibilities will frequently be
reduced to less than one mile. Inexperienced mariners...
especially those operating smaller vessels should avoid
navigating in these conditions.